sensor_id;sensor_type;location;lat;lon;timestamp;temperature;humidity
21184;DHT22;18176;49.502;11.754;2023-12-29T00:01:13;8.30;99.90
21184;DHT22;18176;49.502;11.754;2023-12-29T00:05:34;8.20;99.90
21184;DHT22;18176;49.502;11.754;2023-12-29T00:09:54;8.20;99.90
21184;DHT22;18176;49.502;11.754;2023-12-29T00:14:15;8.20;99.90
21184;DHT22;18176;49.502;11.754;2023-12-29T00:18:39;8.20;99.90
21184;DHT22;18176;49.502;11.754;2023-12-29T00:23:00;8.30;99.90
21184;DHT22;18176;49.502;11.754;2023-12-29T00:27:21;8.40;99.90
21184;DHT22;18176;49.502;11.754;2023-12-29T00:31:42;8.30;99.90
21184;DHT22;18176;49.502;11.754;2023-12-29T00:36:05;8.30;99.90
21184;DHT22;18176;49.502;11.754;2023-12-29T00:40:26;8.40;99.90
21184;DHT22;18176;49.502;11.754;2023-12-29T00:44:47;8.40;99.90
21184;DHT22;18176;49.502;11.754;2023-12-29T00:49:08;8.30;99.90
21184;DHT22;18176;49.502;11.754;2023-12-29T00:53:31;8.40;99.90
21184;DHT22;18176;49.502;11.754;2023-12-29T00:57:53;8.40;99.90
21184;DHT22;18176;49.502;11.754;2023-12-29T01:02:14;8.50;99.90
21184;DHT22;18176;49.502;11.754;2023-12-29T01:06:35;8.50;99.90
21184;DHT22;18176;49.502;11.754;2023-12-29T01:10:59;8.50;99.90
21184;DHT22;18176;49.502;11.754;2023-12-29T01:15:19;8.40;99.90
21184;DHT22;18176;49.502;11.754;2023-12-29T01:19:40;8.50;99.90
21184;DHT22;18176;49.502;11.754;2023-12-29T01:24:01;8.40;99.90
21184;DHT22;18176;49.502;11.754;2023-12-29T01:28:27;8.50;99.90
21184;DHT22;18176;49.502;11.754;2023-12-29T01:32:47;8.50;99.90
21184;DHT22;18176;49.502;11.754;2023-12-29T01:37:08;8.50;99.90
21184;DHT22;18176;49.502;11.754;2023-12-29T01:41:29;8.50;99.90
21184;DHT22;18176;49.502;11.754;2023-12-29T01:45:52;8.50;99.90
21184;DHT22;18176;49.502;11.754;2023-12-29T01:50:15;8.60;99.90
21184;DHT22;18176;49.502;11.754;2023-12-29T01:54:39;8.70;99.90
21184;DHT22;18176;49.502;11.754;2023-12-29T01:59:00;8.80;99.90
21184;DHT22;18176;49.502;11.754;2023-12-29T02:03:34;8.80;99.90
21184;DHT22;18176;49.502;11.754;2023-12-29T02:07:55;8.90;99.90
21184;DHT22;18176;49.502;11.754;2023-12-29T02:12:17;9.00;99.90
21184;DHT22;18176;49.502;11.754;2023-12-29T02:16:48;8.90;99.90
21184;DHT22;18176;49.502;11.754;2023-12-29T02:21:23;8.80;99.90
21184;DHT22;18176;49.502;11.754;2023-12-29T02:25:47;8.70;99.90
21184;DHT22;18176;49.502;11.754;2023-12-29T02:30:10;8.60;99.90
21184;DHT22;18176;49.502;11.754;2023-12-29T02:34:35;8.50;99.90
21184;DHT22;18176;49.502;11.754;2023-12-29T02:38:59;8.50;99.90
21184;DHT22;18176;49.502;11.754;2023-12-29T02:43:23;8.40;99.90
21184;DHT22;18176;49.502;11.754;2023-12-29T02:47:44;8.40;99.90
21184;DHT22;18176;49.502;11.754;2023-12-29T02:52:05;8.30;99.90
21184;DHT22;18176;49.502;11.754;2023-12-29T02:56:26;8.40;99.90
21184;DHT22;18176;49.502;11.754;2023-12-29T03:00:49;8.40;99.90
21184;DHT22;18176;49.502;11.754;2023-12-29T03:05:11;8.30;99.90
21184;DHT22;18176;49.502;11.754;2023-12-29T03:09:32;8.30;99.90
21184;DHT22;18176;49.502;11.754;2023-12-29T03:13:53;8.20;99.90
21184;DHT22;18176;49.502;11.754;2023-12-29T03:18:16;8.20;99.90
21184;DHT22;18176;49.502;11.754;2023-12-29T03:22:37;8.20;99.90
21184;DHT22;18176;49.502;11.754;2023-12-29T03:26:58;8.10;99.90
21184;DHT22;18176;49.502;11.754;2023-12-29T03:31:18;8.00;99.90
21184;DHT22;18176;49.502;11.754;2023-12-29T03:35:42;7.90;99.90
21184;DHT22;18176;49.502;11.754;2023-12-29T03:40:05;7.70;99.90
21184;DHT22;18176;49.502;11.754;2023-12-29T03:44:28;7.50;99.90
21184;DHT22;18176;49.502;11.754;2023-12-29T03:48:49;7.40;99.90
21184;DHT22;18176;49.502;11.754;2023-12-29T03:53:15;7.40;99.90
21184;DHT22;18176;49.502;11.754;2023-12-29T03:57:36;7.30;99.90
21184;DHT22;18176;49.502;11.754;2023-12-29T04:01:57;7.20;99.90
21184;DHT22;18176;49.502;11.754;2023-12-29T04:06:17;7.20;99.90
21184;DHT22;18176;49.502;11.754;2023-12-29T04:10:41;7.10;99.90
21184;DHT22;18176;49.502;11.754;2023-12-29T04:15:01;7.10;99.90
21184;DHT22;18176;49.502;11.754;2023-12-29T04:19:23;7.10;99.90
21184;DHT22;18176;49.502;11.754;2023-12-29T04:23:44;7.10;99.90
21184;DHT22;18176;49.502;11.754;2023-12-29T04:28:07;7.10;99.90
21184;DHT22;18176;49.502;11.754;2023-12-29T04:32:28;7.10;99.90
21184;DHT22;18176;49.502;11.754;2023-12-29T04:36:48;7.10;99.90
21184;DHT22;18176;49.502;11.754;2023-12-29T04:41:12;7.10;99.90
21184;DHT22;18176;49.502;11.754;2023-12-29T04:45:35;7.00;99.90
21184;DHT22;18176;49.502;11.754;2023-12-29T04:49:56;7.00;99.90
21184;DHT22;18176;49.502;11.754;2023-12-29T04:54:17;6.90;99.90
21184;DHT22;18176;49.502;11.754;2023-12-29T04:58:38;6.90;99.90
21184;DHT22;18176;49.502;11.754;2023-12-29T05:03:01;6.80;99.90
21184;DHT22;18176;49.502;11.754;2023-12-29T05:07:24;6.80;99.90
21184;DHT22;18176;49.502;11.754;2023-12-29T05:11:44;6.80;99.90
21184;DHT22;18176;49.502;11.754;2023-12-29T05:16:06;6.80;99.90
21184;DHT22;18176;49.502;11.754;2023-12-29T05:20:29;6.90;99.90
21184;DHT22;18176;49.502;11.754;2023-12-29T05:24:50;6.80;99.90
21184;DHT22;18176;49.502;11.754;2023-12-29T05:29:15;7.00;99.90
21184;DHT22;18176;49.502;11.754;2023-12-29T05:33:36;7.10;99.90
21184;DHT22;18176;49.502;11.754;2023-12-29T05:37:59;7.10;99.90
21184;DHT22;18176;49.502;11.754;2023-12-29T05:42:20;7.20;99.90
21184;DHT22;18176;49.502;11.754;2023-12-29T05:46:40;7.30;99.90
21184;DHT22;18176;49.502;11.754;2023-12-29T05:51:07;7.40;99.90
21184;DHT22;18176;49.502;11.754;2023-12-29T05:55:30;7.40;99.90
21184;DHT22;18176;49.502;11.754;2023-12-29T05:59:51;7.30;99.90
21184;DHT22;18176;49.502;11.754;2023-12-29T06:04:11;7.30;99.90
21184;DHT22;18176;49.502;11.754;2023-12-29T06:08:32;7.20;99.90
21184;DHT22;18176;49.502;11.754;2023-12-29T06:12:55;7.00;99.90
21184;DHT22;18176;49.502;11.754;2023-12-29T06:17:16;7.00;99.90
21184;DHT22;18176;49.502;11.754;2023-12-29T06:21:40;7.10;99.90
21184;DHT22;18176;49.502;11.754;2023-12-29T06:26:02;7.20;99.90
21184;DHT22;18176;49.502;11.754;2023-12-29T06:30:26;7.10;99.90
21184;DHT22;18176;49.502;11.754;2023-12-29T06:34:47;7.00;99.90
21184;DHT22;18176;49.502;11.754;2023-12-29T06:39:07;6.90;99.90
21184;DHT22;18176;49.502;11.754;2023-12-29T06:43:28;6.90;99.90
21184;DHT22;18176;49.502;11.754;2023-12-29T06:47:51;6.80;99.90
21184;DHT22;18176;49.502;11.754;2023-12-29T06:52:12;6.90;99.90
21184;DHT22;18176;49.502;11.754;2023-12-29T06:56:32;6.80;99.90
21184;DHT22;18176;49.502;11.754;2023-12-29T07:00:53;6.80;99.90
21184;DHT22;18176;49.502;11.754;2023-12-29T07:05:16;6.80;99.90
21184;DHT22;18176;49.502;11.754;2023-12-29T07:09:38;6.80;99.90
21184;DHT22;18176;49.502;11.754;2023-12-29T07:14:00;6.80;99.90
21184;DHT22;18176;49.502;11.754;2023-12-29T07:18:20;6.80;99.90
21184;DHT22;18176;49.502;11.754;2023-12-29T07:22:43;6.90;99.90
21184;DHT22;18176;49.502;11.754;2023-12-29T07:27:04;7.00;99.90
21184;DHT22;18176;49.502;11.754;2023-12-29T07:31:25;7.10;99.90
21184;DHT22;18176;49.502;11.754;2023-12-29T07:35:46;7.30;99.90
21184;DHT22;18176;49.502;11.754;2023-12-29T07:40:10;7.40;99.90
21184;DHT22;18176;49.502;11.754;2023-12-29T07:44:31;7.50;99.90
21184;DHT22;18176;49.502;11.754;2023-12-29T07:48:52;7.60;99.90
21184;DHT22;18176;49.502;11.754;2023-12-29T07:53:13;7.60;99.90
21184;DHT22;18176;49.502;11.754;2023-12-29T07:57:36;7.80;99.90
21184;DHT22;18176;49.502;11.754;2023-12-29T08:01:57;8.00;99.90
21184;DHT22;18176;49.502;11.754;2023-12-29T08:06:17;8.00;99.90
21184;DHT22;18176;49.502;11.754;2023-12-29T08:10:38;8.10;99.90
21184;DHT22;18176;49.502;11.754;2023-12-29T08:15:01;8.10;99.90
21184;DHT22;18176;49.502;11.754;2023-12-29T08:19:23;8.20;99.90
21184;DHT22;18176;49.502;11.754;2023-12-29T08:23:45;8.30;99.90
21184;DHT22;18176;49.502;11.754;2023-12-29T08:28:06;8.30;99.90
21184;DHT22;18176;49.502;11.754;2023-12-29T08:32:29;8.50;99.90
21184;DHT22;18176;49.502;11.754;2023-12-29T08:36:51;8.60;99.90
21184;DHT22;18176;49.502;11.754;2023-12-29T08:41:13;8.70;99.90
21184;DHT22;18176;49.502;11.754;2023-12-29T08:45:35;8.80;99.90
21184;DHT22;18176;49.502;11.754;2023-12-29T08:49:59;9.00;99.90
21184;DHT22;18176;49.502;11.754;2023-12-29T08:54:19;9.30;99.90
21184;DHT22;18176;49.502;11.754;2023-12-29T08:58:40;9.20;99.90
21184;DHT22;18176;49.502;11.754;2023-12-29T09:03:01;9.10;99.90
21184;DHT22;18176;49.502;11.754;2023-12-29T09:07:24;9.10;99.90
21184;DHT22;18176;49.502;11.754;2023-12-29T09:11:45;9.00;99.90
21184;DHT22;18176;49.502;11.754;2023-12-29T09:16:06;9.10;99.90
21184;DHT22;18176;49.502;11.754;2023-12-29T09:20:27;9.10;99.90
21184;DHT22;18176;49.502;11.754;2023-12-29T09:24:51;9.20;99.90
21184;DHT22;18176;49.502;11.754;2023-12-29T09:29:11;9.10;99.90
21184;DHT22;18176;49.502;11.754;2023-12-29T09:33:32;9.40;99.90
21184;DHT22;18176;49.502;11.754;2023-12-29T09:37:53;9.60;99.90
21184;DHT22;18176;49.502;11.754;2023-12-29T09:42:20;9.50;99.90
21184;DHT22;18176;49.502;11.754;2023-12-29T09:46:42;9.30;99.90
21184;DHT22;18176;49.502;11.754;2023-12-29T09:51:10;9.20;99.90
21184;DHT22;18176;49.502;11.754;2023-12-29T09:55:31;9.20;99.90
21184;DHT22;18176;49.502;11.754;2023-12-29T09:59:57;9.10;99.90
21184;DHT22;18176;49.502;11.754;2023-12-29T10:04:27;9.30;99.90
21184;DHT22;18176;49.502;11.754;2023-12-29T10:08:48;9.80;99.90
21184;DHT22;18176;49.502;11.754;2023-12-29T10:13:10;9.90;99.90
21184;DHT22;18176;49.502;11.754;2023-12-29T10:17:41;9.70;99.90
21184;DHT22;18176;49.502;11.754;2023-12-29T10:22:20;9.50;99.90
21184;DHT22;18176;49.502;11.754;2023-12-29T10:26:45;9.40;99.90
21184;DHT22;18176;49.502;11.754;2023-12-29T10:31:10;9.30;99.90
21184;DHT22;18176;49.502;11.754;2023-12-29T10:35:38;9.30;99.90
21184;DHT22;18176;49.502;11.754;2023-12-29T10:40:02;9.40;99.90
21184;DHT22;18176;49.502;11.754;2023-12-29T10:44:23;9.40;99.90
21184;DHT22;18176;49.502;11.754;2023-12-29T10:48:43;9.50;99.90
21184;DHT22;18176;49.502;11.754;2023-12-29T10:53:16;9.50;99.90
21184;DHT22;18176;49.502;11.754;2023-12-29T10:57:38;9.60;99.90
21184;DHT22;18176;49.502;11.754;2023-12-29T11:02:01;9.70;99.90
21184;DHT22;18176;49.502;11.754;2023-12-29T11:06:23;9.70;99.90
21184;DHT22;18176;49.502;11.754;2023-12-29T11:10:48;9.50;99.90
21184;DHT22;18176;49.502;11.754;2023-12-29T11:15:10;9.30;99.90
21184;DHT22;18176;49.502;11.754;2023-12-29T11:19:34;9.20;99.90
21184;DHT22;18176;49.502;11.754;2023-12-29T11:23:55;9.00;99.90
21184;DHT22;18176;49.502;11.754;2023-12-29T11:28:19;8.90;99.90
21184;DHT22;18176;49.502;11.754;2023-12-29T11:32:45;8.80;99.90
21184;DHT22;18176;49.502;11.754;2023-12-29T11:37:29;8.70;99.90
21184;DHT22;18176;49.502;11.754;2023-12-29T11:42:03;8.70;99.90
21184;DHT22;18176;49.502;11.754;2023-12-29T11:46:38;8.90;99.90
21184;DHT22;18176;49.502;11.754;2023-12-29T11:51:01;9.10;99.90
21184;DHT22;18176;49.502;11.754;2023-12-29T11:55:28;9.40;99.90
21184;DHT22;18176;49.502;11.754;2023-12-29T11:59:50;9.50;99.90
21184;DHT22;18176;49.502;11.754;2023-12-29T12:04:38;9.80;99.90
21184;DHT22;18176;49.502;11.754;2023-12-29T12:09:15;9.80;99.90
21184;DHT22;18176;49.502;11.754;2023-12-29T12:13:43;9.70;99.90
21184;DHT22;18176;49.502;11.754;2023-12-29T12:18:05;9.60;99.90
21184;DHT22;18176;49.502;11.754;2023-12-29T12:22:30;9.70;99.90
21184;DHT22;18176;49.502;11.754;2023-12-29T12:26:55;9.70;99.90
21184;DHT22;18176;49.502;11.754;2023-12-29T12:31:16;9.70;99.90
21184;DHT22;18176;49.502;11.754;2023-12-29T12:35:37;9.60;99.90
21184;DHT22;18176;49.502;11.754;2023-12-29T12:40:00;9.50;99.90
21184;DHT22;18176;49.502;11.754;2023-12-29T12:44:21;9.60;99.90
21184;DHT22;18176;49.502;11.754;2023-12-29T12:48:46;9.60;99.90
21184;DHT22;18176;49.502;11.754;2023-12-29T12:53:08;9.50;99.90
21184;DHT22;18176;49.502;11.754;2023-12-29T12:57:32;9.60;99.90
21184;DHT22;18176;49.502;11.754;2023-12-29T13:01:53;9.60;99.90
21184;DHT22;18176;49.502;11.754;2023-12-29T13:06:14;9.70;99.90
21184;DHT22;18176;49.502;11.754;2023-12-29T13:10:40;9.80;99.90
21184;DHT22;18176;49.502;11.754;2023-12-29T13:15:08;9.70;99.90
21184;DHT22;18176;49.502;11.754;2023-12-29T13:19:29;9.70;99.90
21184;DHT22;18176;49.502;11.754;2023-12-29T13:23:52;9.60;99.90
21184;DHT22;18176;49.502;11.754;2023-12-29T13:28:15;9.80;99.90
21184;DHT22;18176;49.502;11.754;2023-12-29T13:32:38;10.10;99.90
21184;DHT22;18176;49.502;11.754;2023-12-29T13:37:02;10.50;99.90
21184;DHT22;18176;49.502;11.754;2023-12-29T13:41:30;10.30;99.90
21184;DHT22;18176;49.502;11.754;2023-12-29T13:45:52;10.10;99.90
21184;DHT22;18176;49.502;11.754;2023-12-29T13:50:15;10.00;99.90
21184;DHT22;18176;49.502;11.754;2023-12-29T13:54:42;10.00;99.90
21184;DHT22;18176;49.502;11.754;2023-12-29T13:59:03;9.90;99.90
21184;DHT22;18176;49.502;11.754;2023-12-29T14:03:30;9.80;99.90
21184;DHT22;18176;49.502;11.754;2023-12-29T14:08:00;9.80;99.90
21184;DHT22;18176;49.502;11.754;2023-12-29T14:12:28;9.70;99.90
21184;DHT22;18176;49.502;11.754;2023-12-29T14:16:48;9.70;99.90
21184;DHT22;18176;49.502;11.754;2023-12-29T14:21:22;9.70;99.90
21184;DHT22;18176;49.502;11.754;2023-12-29T14:25:46;9.60;99.90
21184;DHT22;18176;49.502;11.754;2023-12-29T14:30:18;9.50;99.90
21184;DHT22;18176;49.502;11.754;2023-12-29T14:34:39;9.50;99.90
21184;DHT22;18176;49.502;11.754;2023-12-29T14:39:01;9.50;99.90
21184;DHT22;18176;49.502;11.754;2023-12-29T14:43:26;9.50;99.90
21184;DHT22;18176;49.502;11.754;2023-12-29T14:47:47;9.50;99.90
21184;DHT22;18176;49.502;11.754;2023-12-29T14:52:08;9.50;99.90
21184;DHT22;18176;49.502;11.754;2023-12-29T14:56:28;9.40;99.90
21184;DHT22;18176;49.502;11.754;2023-12-29T15:00:52;9.50;99.90
21184;DHT22;18176;49.502;11.754;2023-12-29T15:05:13;9.50;99.90
21184;DHT22;18176;49.502;11.754;2023-12-29T15:09:35;9.40;99.90
21184;DHT22;18176;49.502;11.754;2023-12-29T15:13:56;9.50;99.90
21184;DHT22;18176;49.502;11.754;2023-12-29T15:18:19;9.50;99.90
21184;DHT22;18176;49.502;11.754;2023-12-29T15:22:41;9.50;99.90
21184;DHT22;18176;49.502;11.754;2023-12-29T15:27:03;9.40;99.90
21184;DHT22;18176;49.502;11.754;2023-12-29T15:31:24;9.40;99.90
21184;DHT22;18176;49.502;11.754;2023-12-29T15:35:47;9.40;99.90
21184;DHT22;18176;49.502;11.754;2023-12-29T15:40:09;9.30;99.90
21184;DHT22;18176;49.502;11.754;2023-12-29T15:44:30;9.20;99.90
21184;DHT22;18176;49.502;11.754;2023-12-29T15:48:51;9.30;99.90
21184;DHT22;18176;49.502;11.754;2023-12-29T15:53:17;9.10;99.90
21184;DHT22;18176;49.502;11.754;2023-12-29T15:57:38;8.80;99.90
21184;DHT22;18176;49.502;11.754;2023-12-29T16:01:59;8.70;99.90
21184;DHT22;18176;49.502;11.754;2023-12-29T16:06:21;8.60;99.90
21184;DHT22;18176;49.502;11.754;2023-12-29T16:10:44;8.70;99.90
21184;DHT22;18176;49.502;11.754;2023-12-29T16:15:06;8.70;99.90
21184;DHT22;18176;49.502;11.754;2023-12-29T16:19:27;8.70;99.90
21184;DHT22;18176;49.502;11.754;2023-12-29T16:23:49;8.60;99.90
21184;DHT22;18176;49.502;11.754;2023-12-29T16:28:15;8.50;99.90
21184;DHT22;18176;49.502;11.754;2023-12-29T16:32:35;8.40;99.90
21184;DHT22;18176;49.502;11.754;2023-12-29T16:37:00;8.30;99.90
21184;DHT22;18176;49.502;11.754;2023-12-29T16:41:21;8.20;99.90
21184;DHT22;18176;49.502;11.754;2023-12-29T16:45:44;8.10;99.90
21184;DHT22;18176;49.502;11.754;2023-12-29T16:50:06;8.00;99.90
21184;DHT22;18176;49.502;11.754;2023-12-29T16:54:27;8.00;99.90
21184;DHT22;18176;49.502;11.754;2023-12-29T16:58:51;7.90;99.90
21184;DHT22;18176;49.502;11.754;2023-12-29T17:03:15;7.90;99.90
21184;DHT22;18176;49.502;11.754;2023-12-29T17:07:36;7.80;99.90
21184;DHT22;18176;49.502;11.754;2023-12-29T17:11:58;7.80;99.90
21184;DHT22;18176;49.502;11.754;2023-12-29T17:16:19;7.80;99.90
21184;DHT22;18176;49.502;11.754;2023-12-29T17:20:46;7.70;99.90
21184;DHT22;18176;49.502;11.754;2023-12-29T17:25:08;7.70;99.90
21184;DHT22;18176;49.502;11.754;2023-12-29T17:29:29;7.70;99.90
21184;DHT22;18176;49.502;11.754;2023-12-29T17:33:49;7.80;99.90
21184;DHT22;18176;49.502;11.754;2023-12-29T17:38:14;7.80;99.90
21184;DHT22;18176;49.502;11.754;2023-12-29T17:42:34;7.80;99.90
21184;DHT22;18176;49.502;11.754;2023-12-29T17:46:55;7.80;99.90
21184;DHT22;18176;49.502;11.754;2023-12-29T17:51:19;8.00;99.90
21184;DHT22;18176;49.502;11.754;2023-12-29T17:55:44;8.00;99.90
21184;DHT22;18176;49.502;11.754;2023-12-29T18:00:07;8.10;99.90
21184;DHT22;18176;49.502;11.754;2023-12-29T18:04:28;8.10;99.90
21184;DHT22;18176;49.502;11.754;2023-12-29T18:08:49;8.20;99.90
21184;DHT22;18176;49.502;11.754;2023-12-29T18:13:15;8.10;99.90
21184;DHT22;18176;49.502;11.754;2023-12-29T18:17:38;8.10;99.90
21184;DHT22;18176;49.502;11.754;2023-12-29T18:21:58;8.10;99.90
21184;DHT22;18176;49.502;11.754;2023-12-29T18:26:20;8.20;99.90
21184;DHT22;18176;49.502;11.754;2023-12-29T18:30:43;8.10;99.90
21184;DHT22;18176;49.502;11.754;2023-12-29T18:35:05;8.20;99.90
21184;DHT22;18176;49.502;11.754;2023-12-29T18:39:27;8.20;99.90
21184;DHT22;18176;49.502;11.754;2023-12-29T18:43:47;8.30;99.90
21184;DHT22;18176;49.502;11.754;2023-12-29T18:48:11;8.30;99.90
21184;DHT22;18176;49.502;11.754;2023-12-29T18:52:31;8.30;99.90
21184;DHT22;18176;49.502;11.754;2023-12-29T18:56:52;8.40;99.90
21184;DHT22;18176;49.502;11.754;2023-12-29T19:01:13;8.30;99.90
21184;DHT22;18176;49.502;11.754;2023-12-29T19:05:37;8.30;99.90
21184;DHT22;18176;49.502;11.754;2023-12-29T19:09:58;8.40;99.90
21184;DHT22;18176;49.502;11.754;2023-12-29T19:14:21;8.30;99.90
21184;DHT22;18176;49.502;11.754;2023-12-29T19:18:42;8.30;99.90
21184;DHT22;18176;49.502;11.754;2023-12-29T19:23:06;8.30;99.90
21184;DHT22;18176;49.502;11.754;2023-12-29T19:27:26;8.40;99.90
21184;DHT22;18176;49.502;11.754;2023-12-29T19:31:47;8.50;99.90
21184;DHT22;18176;49.502;11.754;2023-12-29T19:36:10;8.50;99.90
21184;DHT22;18176;49.502;11.754;2023-12-29T19:40:35;8.50;99.90
21184;DHT22;18176;49.502;11.754;2023-12-29T19:44:56;8.50;99.90
21184;DHT22;18176;49.502;11.754;2023-12-29T19:49:29;8.50;99.90
21184;DHT22;18176;49.502;11.754;2023-12-29T19:53:50;8.60;99.90
21184;DHT22;18176;49.502;11.754;2023-12-29T19:58:13;8.60;99.90
21184;DHT22;18176;49.502;11.754;2023-12-29T20:02:34;8.50;99.90
21184;DHT22;18176;49.502;11.754;2023-12-29T20:06:55;8.50;99.90
21184;DHT22;18176;49.502;11.754;2023-12-29T20:11:16;8.40;99.90
21184;DHT22;18176;49.502;11.754;2023-12-29T20:15:40;8.30;99.90
21184;DHT22;18176;49.502;11.754;2023-12-29T20:20:01;8.20;99.90
21184;DHT22;18176;49.502;11.754;2023-12-29T20:24:22;8.10;99.90
21184;DHT22;18176;49.502;11.754;2023-12-29T20:28:43;8.00;99.90
21184;DHT22;18176;49.502;11.754;2023-12-29T20:33:06;7.90;99.90
21184;DHT22;18176;49.502;11.754;2023-12-29T20:37:27;7.80;99.90
21184;DHT22;18176;49.502;11.754;2023-12-29T20:41:47;7.80;99.90
21184;DHT22;18176;49.502;11.754;2023-12-29T20:46:09;7.80;99.90
21184;DHT22;18176;49.502;11.754;2023-12-29T20:50:35;7.70;99.90
21184;DHT22;18176;49.502;11.754;2023-12-29T20:54:55;7.70;99.90
21184;DHT22;18176;49.502;11.754;2023-12-29T20:59:16;7.70;99.90
21184;DHT22;18176;49.502;11.754;2023-12-29T21:03:37;7.70;99.90
21184;DHT22;18176;49.502;11.754;2023-12-29T21:08:00;7.70;99.90
21184;DHT22;18176;49.502;11.754;2023-12-29T21:12:21;7.70;99.90
21184;DHT22;18176;49.502;11.754;2023-12-29T21:16:42;7.80;99.90
21184;DHT22;18176;49.502;11.754;2023-12-29T21:21:02;7.70;99.90
21184;DHT22;18176;49.502;11.754;2023-12-29T21:25:26;7.70;99.90
21184;DHT22;18176;49.502;11.754;2023-12-29T21:29:48;7.80;99.90
21184;DHT22;18176;49.502;11.754;2023-12-29T21:34:11;7.80;99.90
21184;DHT22;18176;49.502;11.754;2023-12-29T21:38:32;7.90;99.90
21184;DHT22;18176;49.502;11.754;2023-12-29T21:42:55;7.80;99.90
21184;DHT22;18176;49.502;11.754;2023-12-29T21:47:16;7.90;99.90
21184;DHT22;18176;49.502;11.754;2023-12-29T21:51:37;7.90;99.90
21184;DHT22;18176;49.502;11.754;2023-12-29T21:55:58;8.00;99.90
21184;DHT22;18176;49.502;11.754;2023-12-29T22:00:22;7.90;99.90
21184;DHT22;18176;49.502;11.754;2023-12-29T22:04:43;7.90;99.90
21184;DHT22;18176;49.502;11.754;2023-12-29T22:09:04;8.00;99.90
21184;DHT22;18176;49.502;11.754;2023-12-29T22:13:25;8.00;99.90
21184;DHT22;18176;49.502;11.754;2023-12-29T22:17:49;8.10;99.90
21184;DHT22;18176;49.502;11.754;2023-12-29T22:22:10;8.20;99.90
21184;DHT22;18176;49.502;11.754;2023-12-29T22:26:30;8.20;99.90
21184;DHT22;18176;49.502;11.754;2023-12-29T22:30:51;8.20;99.90
21184;DHT22;18176;49.502;11.754;2023-12-29T22:35:16;8.30;99.90
21184;DHT22;18176;49.502;11.754;2023-12-29T22:39:36;8.30;99.90
21184;DHT22;18176;49.502;11.754;2023-12-29T22:43:57;8.40;99.90
21184;DHT22;18176;49.502;11.754;2023-12-29T22:48:17;8.40;99.90
21184;DHT22;18176;49.502;11.754;2023-12-29T22:52:41;8.30;99.90
21184;DHT22;18176;49.502;11.754;2023-12-29T22:57:01;8.30;99.90
21184;DHT22;18176;49.502;11.754;2023-12-29T23:01:23;8.40;99.90
21184;DHT22;18176;49.502;11.754;2023-12-29T23:05:45;8.30;99.90
21184;DHT22;18176;49.502;11.754;2023-12-29T23:10:09;8.30;99.90
21184;DHT22;18176;49.502;11.754;2023-12-29T23:14:30;8.30;99.90
21184;DHT22;18176;49.502;11.754;2023-12-29T23:18:52;8.20;99.90
21184;DHT22;18176;49.502;11.754;2023-12-29T23:23:14;8.20;99.90
21184;DHT22;18176;49.502;11.754;2023-12-29T23:27:37;8.20;99.90
21184;DHT22;18176;49.502;11.754;2023-12-29T23:31:58;8.20;99.90
21184;DHT22;18176;49.502;11.754;2023-12-29T23:36:18;8.20;99.90
21184;DHT22;18176;49.502;11.754;2023-12-29T23:40:39;8.10;99.90
21184;DHT22;18176;49.502;11.754;2023-12-29T23:45:03;8.20;99.90
21184;DHT22;18176;49.502;11.754;2023-12-29T23:49:27;8.10;99.90
21184;DHT22;18176;49.502;11.754;2023-12-29T23:53:48;8.10;99.90
21184;DHT22;18176;49.502;11.754;2023-12-29T23:58:08;8.10;99.90
